createdAt,value
2017-09-19T00:01:27.946Z,92.40
2017-09-19T00:03:53.979Z,92.40
2017-09-19T00:06:19.983Z,92.10
2017-09-19T00:08:46.006Z,92.20
2017-09-19T00:11:12.023Z,92.30
2017-09-19T00:13:38.026Z,92.30
2017-09-19T00:16:04.087Z,92.30
2017-09-19T00:18:30.121Z,92.30
2017-09-19T00:20:56.150Z,92.30
2017-09-19T00:23:22.182Z,92.10
2017-09-19T00:25:48.198Z,92.10
2017-09-19T00:28:14.199Z,92.00
2017-09-19T00:30:40.230Z,91.80
2017-09-19T00:33:06.264Z,91.60
2017-09-19T00:35:32.291Z,91.30
2017-09-19T00:37:58.494Z,91.80
2017-09-19T00:40:24.513Z,91.70
2017-09-19T00:42:51.274Z,91.40
2017-09-19T00:45:17.316Z,91.70
2017-09-19T00:47:44.074Z,91.30
2017-09-19T00:50:10.104Z,91.20
2017-09-19T00:52:36.150Z,91.20
2017-09-19T00:55:02.203Z,91.40
2017-09-19T00:57:28.250Z,91.70
2017-09-19T00:59:55.009Z,91.80
2017-09-19T01:02:21.032Z,91.80
2017-09-19T01:04:47.298Z,91.80
2017-09-19T01:07:13.336Z,91.40
2017-09-19T01:09:39.359Z,91.40
2017-09-19T01:12:05.722Z,91.50
2017-09-19T01:14:31.737Z,91.30
2017-09-19T01:16:58.514Z,91.40
2017-09-19T01:19:24.574Z,91.40
2017-09-19T01:21:50.586Z,91.30
2017-09-19T01:24:17.362Z,91.40
2017-09-19T01:26:44.116Z,91.40
2017-09-19T01:29:10.353Z,91.40
2017-09-19T01:31:36.364Z,91.40
2017-09-19T01:34:02.396Z,91.30
2017-09-19T01:36:28.442Z,91.20
2017-09-19T01:38:54.454Z,91.40
2017-09-19T01:41:20.472Z,91.10
2017-09-19T01:43:46.527Z,91.10
2017-09-19T01:46:12.551Z,91.10
2017-09-19T01:48:38.562Z,91.00
2017-09-19T01:51:04.943Z,91.30
2017-09-19T01:53:30.973Z,91.10
2017-09-19T01:55:57.007Z,91.30
2017-09-19T01:58:23.324Z,91.20
2017-09-19T02:00:49.346Z,91.00
2017-09-19T02:03:15.370Z,91.00
2017-09-19T02:05:41.398Z,90.90
2017-09-19T02:08:07.403Z,91.10
2017-09-19T02:10:33.432Z,91.10
2017-09-19T02:12:59.472Z,91.20
2017-09-19T02:15:25.486Z,90.90
2017-09-19T02:17:51.506Z,90.60
2017-09-19T02:20:17.542Z,90.90
2017-09-19T02:22:43.563Z,90.90
2017-09-19T02:25:09.569Z,91.00
2017-09-19T02:27:35.590Z,91.10
2017-09-19T02:30:01.614Z,90.90
2017-09-19T02:32:27.633Z,90.90
2017-09-19T02:34:53.678Z,90.90
2017-09-19T02:37:19.719Z,90.90
2017-09-19T02:39:45.742Z,90.90
2017-09-19T02:42:11.789Z,90.70
2017-09-19T02:44:37.800Z,90.70
2017-09-19T02:47:03.806Z,90.80
2017-09-19T02:49:29.898Z,91.00
2017-09-19T02:51:55.915Z,91.10
2017-09-19T02:54:21.935Z,91.00
2017-09-19T02:56:48.155Z,90.70
2017-09-19T02:59:14.185Z,90.70
2017-09-19T03:01:40.200Z,90.90
2017-09-19T03:04:06.742Z,91.20
2017-09-19T03:06:32.782Z,91.20
2017-09-19T03:08:58.806Z,91.10
2017-09-19T03:11:25.219Z,91.00
2017-09-19T03:13:51.241Z,90.90
2017-09-19T03:16:17.246Z,91.30
2017-09-19T03:18:43.287Z,91.60
2017-09-19T03:21:09.310Z,91.10
2017-09-19T03:23:35.319Z,91.00
2017-09-19T03:26:01.367Z,91.20
2017-09-19T03:28:27.382Z,90.70
2017-09-19T03:30:53.410Z,90.80
2017-09-19T03:33:19.453Z,91.00
2017-09-19T03:35:45.522Z,91.20
2017-09-19T03:38:11.546Z,91.20
2017-09-19T03:40:37.784Z,91.20
2017-09-19T03:43:03.831Z,91.40
2017-09-19T03:45:29.894Z,91.30
2017-09-19T03:47:55.950Z,91.30
2017-09-19T03:50:21.966Z,91.40
2017-09-19T03:52:47.986Z,91.60
2017-09-19T03:55:14.961Z,91.50
2017-09-19T03:57:40.986Z,91.50
2017-09-19T04:00:07.023Z,91.60
2017-09-19T04:02:33.122Z,91.30
2017-09-19T04:04:59.131Z,91.40
2017-09-19T04:07:25.175Z,91.30
2017-09-19T04:09:51.193Z,91.40
2017-09-19T04:12:17.220Z,91.40
2017-09-19T04:14:43.434Z,91.40
2017-09-19T04:17:09.467Z,91.50
2017-09-19T04:19:35.471Z,91.60
2017-09-19T04:22:01.526Z,91.70
2017-09-19T04:24:27.539Z,91.80
2017-09-19T04:26:53.578Z,91.70
2017-09-19T04:29:19.608Z,91.70
2017-09-19T04:31:45.648Z,91.70
2017-09-19T04:34:12.414Z,92.20
2017-09-19T04:36:39.183Z,91.90
2017-09-19T04:39:05.203Z,91.90
2017-09-19T04:41:31.239Z,91.80
2017-09-19T04:43:57.646Z,91.60
2017-09-19T04:46:23.667Z,91.70
2017-09-19T04:48:49.731Z,91.80
2017-09-19T04:51:16.123Z,91.70
2017-09-19T04:53:42.146Z,91.50
2017-09-19T04:56:08.439Z,91.70
2017-09-19T04:58:35.230Z,91.80
2017-09-19T05:01:01.240Z,91.80
2017-09-19T05:03:27.270Z,91.70
2017-09-19T05:05:53.486Z,91.50
2017-09-19T05:08:19.530Z,91.50
2017-09-19T05:10:45.551Z,91.50
2017-09-19T05:13:12.662Z,91.80
2017-09-19T05:15:38.707Z,91.70
2017-09-19T05:18:04.718Z,91.90
2017-09-19T05:20:30.950Z,91.70
2017-09-19T05:22:56.966Z,91.80
2017-09-19T05:25:22.991Z,91.70
2017-09-19T05:27:49.216Z,91.60
2017-09-19T05:30:15.278Z,91.50
2017-09-19T05:32:41.324Z,91.60
2017-09-19T05:35:07.397Z,91.50
2017-09-19T05:37:33.419Z,91.80
2017-09-19T05:40:06.462Z,91.60
2017-09-19T05:42:33.238Z,91.60
2017-09-19T05:44:59.298Z,91.50
2017-09-19T05:47:25.362Z,91.80
2017-09-19T05:49:52.119Z,91.60
2017-09-19T05:52:18.145Z,91.60
2017-09-19T05:54:44.203Z,91.70
2017-09-19T05:57:10.239Z,91.70
2017-09-19T05:59:36.299Z,91.90
2017-09-19T06:02:02.374Z,91.90
2017-09-19T06:04:28.394Z,91.80
2017-09-19T06:06:54.426Z,91.80
2017-09-19T06:09:30.851Z,91.90
2017-09-19T06:11:56.883Z,92.10
2017-09-19T06:14:22.898Z,92.30
2017-09-19T06:16:48.978Z,92.00
2017-09-19T06:19:15.766Z,92.30
2017-09-19T06:21:41.791Z,92.20
2017-09-19T06:24:08.098Z,92.30
2017-09-19T06:26:34.162Z,92.40
2017-09-19T06:29:00.222Z,92.40
2017-09-19T06:31:27.188Z,92.60
2017-09-19T06:33:53.223Z,92.60
2017-09-19T06:36:19.258Z,92.40
2017-09-19T06:38:45.338Z,92.20
2017-09-19T06:41:12.102Z,91.80
2017-09-19T06:43:38.138Z,91.80
2017-09-19T06:46:04.174Z,91.80
2017-09-19T06:48:30.218Z,92.00
2017-09-19T06:50:56.251Z,91.90
2017-09-19T06:53:23.042Z,91.80
2017-09-19T06:55:49.053Z,91.80
2017-09-19T06:58:15.434Z,91.70
2017-09-19T07:00:41.600Z,91.80
2017-09-19T07:03:07.623Z,91.90
2017-09-19T07:05:33.626Z,91.80
2017-09-19T07:08:00.422Z,91.60
2017-09-19T07:10:26.449Z,91.60
2017-09-19T07:12:52.474Z,91.60
2017-09-19T07:15:18.654Z,91.30
2017-09-19T07:17:44.718Z,91.40
2017-09-19T07:20:10.758Z,91.50
2017-09-19T07:22:36.814Z,91.60
2017-09-19T07:25:02.834Z,91.60
2017-09-19T07:27:28.842Z,91.60
2017-09-19T07:29:55.642Z,90.90
2017-09-19T07:32:21.674Z,90.90
2017-09-19T07:34:47.694Z,91.00
2017-09-19T07:37:13.739Z,91.10
2017-09-19T07:39:40.502Z,91.30
2017-09-19T07:42:06.535Z,91.30
2017-09-19T07:44:32.574Z,91.10
2017-09-19T07:46:58.594Z,90.50
2017-09-19T07:49:24.640Z,90.30
2017-09-19T07:51:50.690Z,90.50
2017-09-19T07:54:16.724Z,90.50
2017-09-19T07:56:43.494Z,90.30
2017-09-19T07:59:09.586Z,90.30
2017-09-19T08:01:36.334Z,90.40
2017-09-19T08:04:03.118Z,90.50
2017-09-19T08:06:29.183Z,90.50
2017-09-19T08:08:55.930Z,90.20
2017-09-19T08:11:22.698Z,90.00
2017-09-19T08:13:48.746Z,90.00
2017-09-19T08:16:14.758Z,88.90
2017-09-19T08:18:40.794Z,89.90
2017-09-19T08:21:07.094Z,90.00
2017-09-19T08:23:33.110Z,88.50
2017-09-19T08:25:59.132Z,88.60
2017-09-19T08:28:25.252Z,88.20
2017-09-19T08:30:51.282Z,88.60
2017-09-19T08:33:17.296Z,88.50
2017-09-19T08:35:43.327Z,87.10
2017-09-19T08:38:09.357Z,87.30
2017-09-19T08:40:35.374Z,86.30
2017-09-19T08:43:01.427Z,87.20
2017-09-19T08:45:27.454Z,86.60
2017-09-19T08:47:53.473Z,86.00
2017-09-19T08:50:19.766Z,85.20
2017-09-19T08:52:45.790Z,85.60
2017-09-19T08:55:11.810Z,86.00
2017-09-19T08:57:38.022Z,84.70
2017-09-19T09:00:04.044Z,85.30
2017-09-19T09:02:30.070Z,85.20
2017-09-19T09:04:56.398Z,84.40
2017-09-19T09:07:22.430Z,84.90
2017-09-19T09:09:48.457Z,85.10
2017-09-19T09:12:14.498Z,84.60
2017-09-19T09:14:40.533Z,85.10
2017-09-19T09:17:06.550Z,83.60
2017-09-19T09:19:32.812Z,82.60
2017-09-19T09:21:59.573Z,80.90
2017-09-19T09:24:26.338Z,81.20
2017-09-19T09:26:52.359Z,81.20
2017-09-19T09:29:18.371Z,82.60
2017-09-19T09:31:44.399Z,80.10
2017-09-19T09:34:10.411Z,80.00
2017-09-19T09:36:36.438Z,79.00
2017-09-19T09:39:02.482Z,79.30
2017-09-19T09:41:28.490Z,76.90
2017-09-19T09:43:54.514Z,76.00
2017-09-19T09:46:20.786Z,73.80
2017-09-19T09:48:46.862Z,73.60
2017-09-19T09:51:12.875Z,71.90
2017-09-19T09:53:38.914Z,69.50
2017-09-19T09:56:04.918Z,68.30
2017-09-19T09:58:30.935Z,67.10
2017-09-19T10:00:56.970Z,67.40
2017-09-19T10:03:22.996Z,65.40
2017-09-19T10:05:49.027Z,65.10
2017-09-19T10:08:15.341Z,65.20
2017-09-19T10:10:41.357Z,62.60
2017-09-19T10:13:07.375Z,62.40
2017-09-19T10:15:33.506Z,62.00
2017-09-19T10:17:59.782Z,61.20
2017-09-19T10:20:25.810Z,60.40
2017-09-19T10:22:52.794Z,59.20
2017-09-19T10:25:18.834Z,59.20
2017-09-19T10:27:44.849Z,60.70
2017-09-19T10:30:11.172Z,63.90
2017-09-19T10:32:37.172Z,64.00
2017-09-19T10:35:03.933Z,66.30
2017-09-19T10:37:29.966Z,66.30
2017-09-19T10:39:55.977Z,65.30
2017-09-19T10:42:21.995Z,65.70
2017-09-19T10:44:48.021Z,66.10
2017-09-19T10:47:14.034Z,67.80
2017-09-19T10:49:40.053Z,68.00
2017-09-19T10:52:06.102Z,67.30
2017-09-19T10:54:32.140Z,70.40
2017-09-19T10:56:58.190Z,68.40
2017-09-19T10:59:24.201Z,68.80
2017-09-19T11:01:50.584Z,68.80
2017-09-19T11:04:17.345Z,70.00
2017-09-19T11:06:43.367Z,70.00
2017-09-19T11:09:09.778Z,69.60
2017-09-19T11:11:35.811Z,71.00
2017-09-19T11:14:08.990Z,72.50
2017-09-19T11:16:35.002Z,72.20
2017-09-19T11:19:01.040Z,70.30
2017-09-19T11:21:27.263Z,70.30
2017-09-19T11:23:53.276Z,68.70
2017-09-19T11:26:19.307Z,70.30
2017-09-19T11:28:45.364Z,70.30
2017-09-19T11:31:11.412Z,70.60
2017-09-19T11:33:37.434Z,70.60
2017-09-19T11:36:03.698Z,71.50
2017-09-19T11:38:29.739Z,71.60
2017-09-19T11:40:55.743Z,72.20
2017-09-19T11:43:22.014Z,71.30
2017-09-19T11:45:48.014Z,71.00
2017-09-19T11:48:14.027Z,71.00
2017-09-19T11:50:40.063Z,68.90
2017-09-19T11:53:06.130Z,69.60
2017-09-19T11:55:32.926Z,69.60
2017-09-19T11:58:00.075Z,69.50
2017-09-19T12:00:26.090Z,69.10
2017-09-19T12:02:52.108Z,70.10
2017-09-19T12:05:18.174Z,69.50
2017-09-19T12:07:44.214Z,69.20
2017-09-19T12:10:10.979Z,67.00
2017-09-19T12:12:37.022Z,66.90
2017-09-19T12:15:03.099Z,67.30
2017-09-19T12:17:29.867Z,67.30
2017-09-19T12:19:56.089Z,67.30
2017-09-19T12:22:22.114Z,68.10
2017-09-19T12:24:48.138Z,67.50
2017-09-19T12:27:14.199Z,66.30
2017-09-19T12:29:40.214Z,65.10
2017-09-19T12:32:06.262Z,64.50
2017-09-19T12:34:32.282Z,64.20
2017-09-19T12:36:58.311Z,64.60
2017-09-19T12:39:24.353Z,63.90
2017-09-19T12:41:51.126Z,64.10
2017-09-19T12:44:17.150Z,64.10
2017-09-19T12:46:43.214Z,67.10
2017-09-19T12:49:09.230Z,65.20
2017-09-19T12:51:35.254Z,63.60
2017-09-19T12:54:02.014Z,63.70
2017-09-19T12:56:28.758Z,65.50
2017-09-19T12:58:55.535Z,65.60
2017-09-19T13:01:21.547Z,65.60
2017-09-19T13:03:47.556Z,65.90
2017-09-19T13:06:13.687Z,66.10
2017-09-19T13:08:39.720Z,65.40
2017-09-19T13:11:05.751Z,65.90
2017-09-19T13:13:31.810Z,67.10
2017-09-19T13:15:57.934Z,66.00
2017-09-19T13:18:23.964Z,67.40
2017-09-19T13:20:50.930Z,68.00
2017-09-19T13:23:16.935Z,67.90
2017-09-19T13:25:43.683Z,67.80
2017-09-19T13:28:10.630Z,67.90
2017-09-19T13:30:37.391Z,66.90
2017-09-19T13:33:15.931Z,66.90
2017-09-19T13:35:41.944Z,65.80
2017-09-19T13:38:08.055Z,66.10
2017-09-19T13:40:34.095Z,66.20
2017-09-19T13:43:00.111Z,66.50
2017-09-19T13:45:26.213Z,65.60
2017-09-19T13:47:52.305Z,63.80
2017-09-19T13:50:19.096Z,63.40
2017-09-19T13:52:45.120Z,63.40
2017-09-19T13:55:11.430Z,61.70
2017-09-19T13:57:37.458Z,61.40
2017-09-19T14:00:03.496Z,62.30
2017-09-19T14:02:29.894Z,63.50
2017-09-19T14:04:55.927Z,64.30
2017-09-19T14:07:21.965Z,65.20
2017-09-19T14:09:48.071Z,65.40
2017-09-19T14:12:14.138Z,65.40
2017-09-19T14:14:40.175Z,65.30
2017-09-19T14:17:06.454Z,64.40
2017-09-19T14:19:32.548Z,63.40
2017-09-19T14:21:59.315Z,63.40
2017-09-19T14:24:25.534Z,63.20
2017-09-19T14:26:51.546Z,63.80
2017-09-19T14:29:17.592Z,63.50
2017-09-19T14:31:43.647Z,63.70
2017-09-19T14:34:09.682Z,64.20
2017-09-19T14:36:35.706Z,63.90
2017-09-19T14:39:02.075Z,64.00
2017-09-19T14:41:28.124Z,64.80
2017-09-19T14:43:54.179Z,65.40
2017-09-19T14:46:20.327Z,66.40
2017-09-19T14:48:47.121Z,65.20
2017-09-19T14:51:13.171Z,65.20
2017-09-19T14:53:39.204Z,65.00
2017-09-19T14:56:05.962Z,62.30
2017-09-19T14:58:31.967Z,62.20
2017-09-19T15:00:58.023Z,63.00
2017-09-19T15:03:24.022Z,64.50
2017-09-19T15:05:50.046Z,65.70
2017-09-19T15:08:16.058Z,66.70
2017-09-19T15:10:42.838Z,69.00
2017-09-19T15:13:09.250Z,69.00
2017-09-19T15:15:35.272Z,69.50
2017-09-19T15:18:01.298Z,70.30
2017-09-19T15:20:27.693Z,70.70
2017-09-19T15:22:54.499Z,70.80
2017-09-19T15:25:20.521Z,70.80
2017-09-19T15:27:46.546Z,70.50
2017-09-19T15:30:12.563Z,70.30
2017-09-19T15:32:38.586Z,70.30
2017-09-19T15:35:04.626Z,70.60
2017-09-19T15:37:30.649Z,70.70
2017-09-19T15:39:56.650Z,71.30
2017-09-19T15:42:22.701Z,72.40
2017-09-19T15:44:48.733Z,73.00
2017-09-19T15:47:15.481Z,74.20
2017-09-19T15:49:42.446Z,74.60
2017-09-19T15:52:08.506Z,74.60
2017-09-19T15:54:34.555Z,74.80
2017-09-19T15:57:01.335Z,72.20
2017-09-19T15:59:27.356Z,72.10
2017-09-19T16:01:53.405Z,71.00
2017-09-19T16:04:19.455Z,70.00
2017-09-19T16:06:45.471Z,68.70
2017-09-19T16:09:11.539Z,69.20
2017-09-19T16:11:37.568Z,67.30
2017-09-19T16:14:03.627Z,67.20
2017-09-19T16:16:29.664Z,67.60
2017-09-19T16:18:55.671Z,67.10
2017-09-19T16:21:22.072Z,67.00
2017-09-19T16:23:48.111Z,67.00
2017-09-19T16:26:14.135Z,67.20
2017-09-19T16:28:40.579Z,67.80
2017-09-19T16:31:06.619Z,68.50
2017-09-19T16:33:32.642Z,69.30
2017-09-19T16:35:58.693Z,69.60
2017-09-19T16:38:24.725Z,71.40
2017-09-19T16:40:50.895Z,70.70
2017-09-19T16:43:16.939Z,70.80
2017-09-19T16:45:43.695Z,72.10
2017-09-19T16:48:10.453Z,73.20
2017-09-19T16:50:37.458Z,73.60
2017-09-19T16:53:03.481Z,73.50
2017-09-19T16:55:30.242Z,75.10
2017-09-19T16:57:56.351Z,75.00
2017-09-19T17:00:22.357Z,75.00
2017-09-19T17:02:48.379Z,75.90
2017-09-19T17:05:14.696Z,75.30
2017-09-19T17:07:40.798Z,75.60
2017-09-19T17:10:06.854Z,76.70
2017-09-19T17:12:32.874Z,76.30
2017-09-19T17:14:59.040Z,76.70
2017-09-19T17:17:25.346Z,77.90
2017-09-19T17:19:51.454Z,77.40
2017-09-19T17:22:18.319Z,78.40
2017-09-19T17:24:44.473Z,78.40
2017-09-19T17:27:10.621Z,78.60
2017-09-19T17:29:36.771Z,79.30
2017-09-19T17:32:03.640Z,79.80
2017-09-19T17:34:29.780Z,79.80
2017-09-19T17:36:55.877Z,79.70
2017-09-19T17:39:22.051Z,80.50
2017-09-19T17:41:48.167Z,80.70
2017-09-19T17:44:14.260Z,80.40
2017-09-19T17:46:40.404Z,80.80
2017-09-19T17:49:06.532Z,81.00
2017-09-19T17:51:32.586Z,81.70
2017-09-19T17:53:58.716Z,82.20
2017-09-19T17:56:25.557Z,82.00
2017-09-19T17:58:52.394Z,82.30
2017-09-19T18:01:18.536Z,82.30
2017-09-19T18:03:45.376Z,82.40
2017-09-19T18:06:12.270Z,82.80
2017-09-19T18:08:38.375Z,82.60
2017-09-19T18:11:04.433Z,82.70
2017-09-19T18:13:30.785Z,82.70
2017-09-19T18:15:57.546Z,82.90
2017-09-19T18:18:24.695Z,83.00
2017-09-19T18:20:50.786Z,83.00
2017-09-19T18:23:16.908Z,83.30
2017-09-19T18:27:12.454Z,83.50
2017-09-19T18:29:38.572Z,83.50
2017-09-19T18:32:05.414Z,84.30
2017-09-19T18:34:31.879Z,84.20
2017-09-19T18:36:57.983Z,81.80
2017-09-19T18:39:24.092Z,83.20
2017-09-19T18:41:51.320Z,86.50
2017-09-19T18:44:17.432Z,86.50
2017-09-19T18:46:43.555Z,87.70
2017-09-19T18:49:11.393Z,89.30
2017-09-19T18:51:37.434Z,89.40
2017-09-19T18:54:03.543Z,89.70
2017-09-19T18:56:29.699Z,90.10
2017-09-19T18:58:55.820Z,90.20
2017-09-19T19:01:22.110Z,90.20
2017-09-19T19:03:48.200Z,90.50
2017-09-19T19:06:14.341Z,90.50
2017-09-19T19:08:40.512Z,90.30
2017-09-19T19:11:06.631Z,90.40
2017-09-19T19:13:32.758Z,90.80
2017-09-19T19:15:58.887Z,90.80
2017-09-19T19:18:25.010Z,90.60
2017-09-19T19:20:51.116Z,90.70
2017-09-19T19:23:17.239Z,90.80
2017-09-19T19:25:43.337Z,91.00
2017-09-19T19:28:09.855Z,90.70
2017-09-19T19:30:35.975Z,90.80
2017-09-19T19:33:02.095Z,90.80
2017-09-19T19:35:28.283Z,90.70
2017-09-19T19:37:54.352Z,90.10
2017-09-19T19:40:20.460Z,90.00
2017-09-19T19:42:46.620Z,90.10
2017-09-19T19:45:12.768Z,90.20
2017-09-19T19:47:38.840Z,90.60
2017-09-19T19:50:05.671Z,90.80
2017-09-19T19:52:32.516Z,90.80
2017-09-19T19:54:58.634Z,90.70
2017-09-19T19:57:25.804Z,90.00
2017-09-19T19:59:51.840Z,90.00
2017-09-19T20:02:17.862Z,90.60
2017-09-19T20:04:43.991Z,90.30
2017-09-19T20:07:10.027Z,89.90
2017-09-19T20:09:36.121Z,90.30
2017-09-19T20:12:02.259Z,89.80
2017-09-19T20:14:28.280Z,90.30
2017-09-19T20:16:54.368Z,90.00
2017-09-19T20:19:21.224Z,89.60
2017-09-19T20:21:47.283Z,89.60
2017-09-19T20:24:13.747Z,89.60
2017-09-19T20:26:40.531Z,90.30
2017-09-19T20:29:06.685Z,90.30
2017-09-19T20:31:33.150Z,90.60
2017-09-19T20:33:59.994Z,90.40
2017-09-19T20:36:26.087Z,90.40
2017-09-19T20:38:52.152Z,90.20
2017-09-19T20:41:18.982Z,89.50
2017-09-19T20:43:45.480Z,89.40
2017-09-19T20:46:11.676Z,89.30
2017-09-19T20:48:37.755Z,89.00
2017-09-19T20:51:04.815Z,88.60
2017-09-19T20:53:30.916Z,88.60
2017-09-19T20:55:57.675Z,89.40
2017-09-19T20:58:24.524Z,89.70
2017-09-19T21:00:50.542Z,89.80
2017-09-19T21:03:22.846Z,89.70
2017-09-19T21:05:55.298Z,89.70
2017-09-19T21:08:27.396Z,90.30
2017-09-19T21:10:59.728Z,89.40
2017-09-19T21:13:32.978Z,89.30
2017-09-19T21:16:05.114Z,89.00
2017-09-19T21:18:37.156Z,89.10
2017-09-19T21:21:03.244Z,89.40
2017-09-19T21:23:30.375Z,90.00
2017-09-19T21:25:56.398Z,90.00
2017-09-19T21:28:23.248Z,90.20
2017-09-19T21:30:50.221Z,90.40
2017-09-19T21:33:16.231Z,90.40
2017-09-19T21:35:42.250Z,90.30
2017-09-19T21:38:09.028Z,90.40
2017-09-19T21:40:35.043Z,90.40
2017-09-19T21:43:01.059Z,90.30
2017-09-19T21:45:27.255Z,90.40
2017-09-19T21:47:54.011Z,90.50
2017-09-19T21:50:20.150Z,90.40
2017-09-19T21:52:46.471Z,90.60
2017-09-19T21:55:12.496Z,90.70
2017-09-19T21:57:38.528Z,91.00
2017-09-19T22:00:05.051Z,90.70
2017-09-19T22:02:31.074Z,91.00
2017-09-19T22:04:57.086Z,91.00
2017-09-19T22:07:23.103Z,91.10
2017-09-19T22:09:49.131Z,91.10
2017-09-19T22:12:15.160Z,91.20
2017-09-19T22:14:41.178Z,91.30
2017-09-19T22:17:07.246Z,91.30
2017-09-19T22:19:33.258Z,91.30
2017-09-19T22:21:59.285Z,91.40
2017-09-19T22:24:26.087Z,91.40
2017-09-19T22:26:52.101Z,91.40
2017-09-19T22:29:18.119Z,91.30
2017-09-19T22:31:44.299Z,91.50
2017-09-19T22:34:10.302Z,91.50
2017-09-19T22:36:36.322Z,91.40
2017-09-19T22:39:02.392Z,91.50
2017-09-19T22:41:28.429Z,91.60
2017-09-19T22:43:54.450Z,91.30
2017-09-19T22:46:20.499Z,91.40
2017-09-19T22:48:46.510Z,91.50
2017-09-19T22:51:12.532Z,91.50
2017-09-19T22:53:38.850Z,91.40
2017-09-19T22:56:04.866Z,91.40
2017-09-19T22:58:30.870Z,91.40
2017-09-19T23:00:58.512Z,91.50
2017-09-19T23:03:25.266Z,91.50
2017-09-19T23:05:53.103Z,91.80
2017-09-19T23:08:19.375Z,91.70
2017-09-19T23:10:45.383Z,91.60
2017-09-19T23:13:11.397Z,91.60
2017-09-19T23:15:38.183Z,91.60
2017-09-19T23:18:04.215Z,91.60
2017-09-19T23:20:30.218Z,91.60
2017-09-19T23:22:56.531Z,91.50
2017-09-19T23:25:22.543Z,91.40
2017-09-19T23:27:48.573Z,91.50
2017-09-19T23:30:14.606Z,91.40
2017-09-19T23:32:40.642Z,91.40
2017-09-19T23:35:06.678Z,91.40
2017-09-19T23:37:32.962Z,91.40
2017-09-19T23:39:59.003Z,91.60
2017-09-19T23:42:25.026Z,91.60
2017-09-19T23:44:51.079Z,91.60
2017-09-19T23:47:17.103Z,91.60
2017-09-19T23:49:43.111Z,91.60
2017-09-19T23:52:09.127Z,91.70
2017-09-19T23:54:35.135Z,91.80
2017-09-19T23:57:01.355Z,91.60
2017-09-19T23:59:27.382Z,91.60
